Airfield :
LOGIN :

Register | Disclaimer

   EN    FR    IT 

 










Legend :    VFR   Marginal VFR   IFR   Intensive IFR   Very Intensive IFR
Visi :
Ceiling :
>= 8 km
>= 3000ft
5 to 8 km
1000 to 3000 ft
1500m to 5 km
500 to 1000 ft
800 to 1500m
200 to 500 ft
< 800m
< 200 ft
Symbols :   Thunderstorms  Fog  Heavy snow  Heavy precipitations  Wind > 20 kt
SIGMETs :     Misc.  Thunderstorms  Icing  Turbulence  Mountain Waves  Volcanic Ashes






- Airport Elevation : 57 ft
- IATA code : KRS


ENCN - Kristiansand Kjevik

CURRENT METAR :
  • 280050Z AUTO 32011KT 9999 OVC130/// 11/01 Q1006

EXPIRED METARs :
  • 280020Z AUTO 32010KT 9999 FEW086/// BKN130/// 10/02 Q1006
  • 272350Z AUTO 32009KT 290V360 9999 FEW130/// 10/02 Q1006
  • 272320Z AUTO 32005KT 280V360 9999 SCT100/// OVC130/// 10/02 Q1006
  • 272250Z AUTO 32006KT 280V010 9999 FEW120/// OVC140/// 10/02 Q1006
  • 272220Z AUTO 31005KT 280V360 9999 SCT150/// 10/02 Q1006

Expired Forecast.



MET'MAP, your aeronautical weather chart ! - Copyright ORBIFLY December 2007 - Disclaimer

ORBIFLY MET'MAP TEAM :

Programming & Development : Alexandra Zaïnal
Original concept : Baudouin d'Aumeries
Technical & hardware support : Manuel Goepfert
Assistance : Marc-Olivier Méhu

Contact : metmap@orbifly.com




SOURCES & CREDITS :

   NOAA